sensor_id;sensor_type;location;lat;lon;timestamp;pressure;altitude;pressure_sealevel;temperature;humidity
71642;BME280;60657;50.122;14.468;2023-04-29T13:20:00;97929.08716964645;;;18.975738155184253;55.852445258258946
71642;BME280;60657;50.122;14.468;2023-04-29T13:23:02;97927.22131955295;;;18.743419546807047;57.54428931105516
71642;BME280;60657;50.122;14.468;2023-04-29T13:26:03;97935.55182375076;;;18.676661326009004;58.25574120698863
71642;BME280;60657;50.122;14.468;2023-04-29T13:29:04;97936.63758312208;;;18.337529564354924;60.34050507362478
71642;BME280;60657;50.122;14.468;2023-04-29T13:32:05;97949.90926907334;;;18.174639505607693;61.86640726329442
71642;BME280;60657;50.122;14.468;2023-04-29T13:35:06;97938.3404781349;;;17.912947280079344;62.77622644388495
71642;BME280;60657;50.122;14.468;2023-04-29T13:38:07;97946.02303166098;;;17.645914396887157;63.55825131609063
71642;BME280;60657;50.122;14.468;2023-04-29T13:41:08;97954.24138876934;;;17.49103532463569;63.98741130693523
71642;BME280;60657;50.122;14.468;2023-04-29T13:44:09;97959.27646220582;;;17.520408941786833;63.7699702449073
71642;BME280;60657;50.122;14.468;2023-04-29T13:47:10;97951.10286315385;;;17.426947432669564;63.95498588540474
71642;BME280;60657;50.122;14.468;2023-04-29T13:50:11;97959.82493234635;;;17.272068360418096;64.03128099488823
71642;BME280;60657;50.122;14.468;2023-04-29T13:53:11;97963.36095873722;;;17.266727702754253;63.583047226672775
71642;BME280;60657;50.122;14.468;2023-04-29T13:56:12;97968.00778060648;;;17.06378271152819;64.26779583428703
71642;BME280;60657;50.122;14.468;2023-04-29T13:59:13;97966.26615261583;;;17.138551918822003;63.93400473029679
71642;BME280;60657;50.122;14.468;2023-04-29T14:02:14;97972.94400598407;;;17.178606851300835;63.44571602960251
71642;BME280;60657;50.122;14.468;2023-04-29T14:05:15;97965.77963187937;;;17.31746395056077;62.50156404974442
71642;BME280;60657;50.122;14.468;2023-04-29T14:08:15;97970.61663209165;;;17.400244144350346;62.40238040741589
71642;BME280;60657;50.122;14.468;2023-04-29T14:11:16;97977.05762357461;;;17.21599145494774;61.99229419394217
71642;BME280;60657;50.122;14.468;2023-04-29T14:14:17;97981.1230730422;;;17.25871671625849;61.52307927061875
71642;BME280;60657;50.122;14.468;2023-04-29T14:17:18;97980.20357860535;;;17.349507896543834;60.371023117418176
71642;BME280;60657;50.122;14.468;2023-04-29T14:20:25;97977.09832174347;;;17.437628747997252;60.723887998779276
71642;BME280;60657;50.122;14.468;2023-04-29T14:23:26;97984.97436530789;;;17.584496833752958;60.601815823605705
71642;BME280;60657;50.122;14.468;2023-04-29T14:26:26;97982.25398919877;;;17.870222018768594;59.880827038986794
71642;BME280;60657;50.122;14.468;2023-04-29T14:29:27;97977.77563669249;;;17.99038681620508;59.55466544594492
71642;BME280;60657;50.122;14.468;2023-04-29T14:32:28;97988.30623060807;;;18.051804379339288;58.475089646753645
71642;BME280;60657;50.122;14.468;2023-04-29T14:35:29;97987.4995945299;;;17.832837415121688;57.41458762493324
71642;BME280;60657;50.122;14.468;2023-04-29T14:38:30;97995.26152215413;;;17.77943083848325;57.66636148622873
71642;BME280;60657;50.122;14.468;2023-04-29T14:41:32;98000.34612331931;;;18.02510109102007;57.53475242236973
71642;BME280;60657;50.122;14.468;2023-04-29T14:44:33;98013.34717712596;;;18.155947203784237;56.25871671625849
71642;BME280;60657;50.122;14.468;2023-04-29T14:47:33;98019.16720396509;;;17.84885938811322;55.373693446250094
71642;BME280;60657;50.122;14.468;2023-04-29T14:50:34;98015.4365851298;;;17.46433203631647;55.91348134584573
71642;BME280;60657;50.122;14.468;2023-04-29T14:53:35;98011.27382963334;;;17.197299153124284;56.82520790417334
71642;BME280;60657;50.122;14.468;2023-04-29T14:56:36;98013.20441689008;;;17.202639810788128;57.45464255741207
71642;BME280;60657;50.122;14.468;2023-04-29T14:59:37;98011.42046833223;;;17.44831006332494;57.42221713588159
71642;BME280;60657;50.122;14.468;2023-04-29T15:02:38;98018.14992007025;;;17.467002365148396;57.2295719844358
71642;BME280;60657;50.122;14.468;2023-04-29T15:05:38;98018.82617128764;;;17.536430914778364;57.66826886396582
71642;BME280;60657;50.122;14.468;2023-04-29T15:08:39;98029.86563535963;;;17.40558480201419;59.19035629816129
71642;BME280;60657;50.122;14.468;2023-04-29T15:11:40;98029.76047256475;;;17.226672770275428;59.796902418554964
71642;BME280;60657;50.122;14.468;2023-04-29T15:14:41;98034.9812427041;;;17.167925535973147;59.976195925841154
71642;BME280;60657;50.122;14.468;2023-04-29T15:17:42;98033.49045417194;;;17.65926604104677;58.47318226901656
71642;BME280;60657;50.122;14.468;2023-04-29T15:20:45;98032.66755091929;;;17.629892423895626;58.14511329823759
71642;BME280;60657;50.122;14.468;2023-04-29T15:23:46;98047.28114280605;;;17.835507743953613;57.857099259937435
71642;BME280;60657;50.122;14.468;2023-04-29T15:26:47;98042.66287359546;;;17.912947280079344;55.41565575646601
71642;BME280;60657;50.122;14.468;2023-04-29T15:29:48;98052.38364704618;;;18.054474708171206;54.85488670176242
71642;BME280;60657;50.122;14.468;2023-04-29T15:32:48;98042.51004505646;;;17.83817807278553;53.49301899748226
71642;BME280;60657;50.122;14.468;2023-04-29T15:35:49;98051.54549135934;;;17.72068360418097;54.189211871519035
71642;BME280;60657;50.122;14.468;2023-04-29T15:38:50;98051.34574085905;;;17.870222018768594;54.72327763790341
71642;BME280;60657;50.122;14.468;2023-04-29T15:41:51;98052.11850688304;;;17.774090180819407;55.24971389333944
71642;BME280;60657;50.122;14.468;2023-04-29T15:44:52;98049.09239076228;;;17.942320897230488;55.14862287327382
71642;BME280;60657;50.122;14.468;2023-04-29T15:47:52;98051.64483699058;;;17.72068360418097;55.701762417029066
71642;BME280;60657;50.122;14.468;2023-04-29T15:50:53;98063.65987188368;;;17.667277027542532;55.8734264133669
71642;BME280;60657;50.122;14.468;2023-04-29T15:53:54;98067.67765478096;;;17.683299000534063;55.67505912870985
71642;BME280;60657;50.122;14.468;2023-04-29T15:56:55;98066.565556454;;;17.517738612954908;56.382696269169145
71642;BME280;60657;50.122;14.468;2023-04-29T15:59:56;98069.60619956689;;;17.26138704509041;57.645380331120776
71642;BME280;60657;50.122;14.468;2023-04-29T16:02:57;98078.353302826;;;17.17326619363699;57.969634546425574
71642;BME280;60657;50.122;14.468;2023-04-29T16:05:58;98092.61652612536;;;16.87953002212558;58.009689478904406
71642;BME280;60657;50.122;14.468;2023-04-29T16:09:01;98095.3080895925;;;16.90356298161288;58.43884946974899
71642;BME280;60657;50.122;14.468;2023-04-29T16:12:02;98097.81483234117;;;16.543068589303424;58.33966582742046
71642;BME280;60657;50.122;14.468;2023-04-29T16:15:03;98104.24634900424;;;16.404211490043487;58.76882581826504
71642;BME280;60657;50.122;14.468;2023-04-29T16:18:05;98117.83915847294;;;16.313420309758143;59.465018692301825
71642;BME280;60657;50.122;14.468;2023-04-29T16:21:08;98112.02850541082;;;16.294728007934694;59.512703135729
71642;BME280;60657;50.122;14.468;2023-04-29T16:24:09;98124.31374573;;;16.473640039673455;58.86037994964522
71642;BME280;60657;50.122;14.468;2023-04-29T16:27:10;98129.26016221869;;;16.454947737850006;58.723048752574954
71642;BME280;60657;50.122;14.468;2023-04-29T16:30:12;98121.92106065949;;;16.3935301747158;58.166094453345536
71642;BME280;60657;50.122;14.468;2023-04-29T16:33:12;98131.22964376901;;;16.34813458457313;58.23666742961777
71642;BME280;60657;50.122;14.468;2023-04-29T16:36:13;98140.40539824682;;;15.995651178759438;59.46883344777599
71642;BME280;60657;50.122;14.468;2023-04-29T16:39:14;98138.19283919368;;;15.910200656137938;59.81406881818876
71642;BME280;60657;50.122;14.468;2023-04-29T16:42:15;98144.58557354152;;;15.632486457618064;60.182192721446555
71642;BME280;60657;50.122;14.468;2023-04-29T16:45:16;98156.55931924221;;;15.539024948500803;60.59418631265736
71642;BME280;60657;50.122;14.468;2023-04-29T16:48:17;98159.13879396567;;;15.509651331349659;60.90127412832837
71642;BME280;60657;50.122;14.468;2023-04-29T16:51:18;98167.66519274993;;;15.44022278171969;61.06149385824369
71642;BME280;60657;50.122;14.468;2023-04-29T16:54:19;98178.00431561538;;;15.39749752040894;61.33615625238423
71642;BME280;60657;50.122;14.468;2023-04-29T16:57:20;98184.14010491515;;;15.183871213855191;62.48439765011062
71642;BME280;60657;50.122;14.468;2023-04-29T17:00:21;98191.98056759404;;;14.970244907301442;64.17242694743267
71642;BME280;60657;50.122;14.468;2023-04-29T17:03:22;98207.21233786913;;;14.946211947814142;64.99832150759136
71642;BME280;60657;50.122;14.468;2023-04-29T17:06:31;98210.10313575203;;;14.732585641260393;66.32585641260395
71642;BME280;60657;50.122;14.468;2023-04-29T17:09:32;98215.6754472645;;;14.462882429236288;67.31006332494087
71642;BME280;60657;50.122;14.468;2023-04-29T17:12:33;98225.05847738599;;;14.412146181429769;67.49507896543831
71642;BME280;60657;50.122;14.468;2023-04-29T17:15:34;98226.78962156529;;;14.29999237048905;67.83840695811398
71642;BME280;60657;50.122;14.468;2023-04-29T17:18:35;98235.60647418184;;;14.032959487296864;67.94522011139085
71642;BME280;60657;50.122;14.468;2023-04-29T17:21:46;98247.53532164694;;;13.891432059205002;68.21225299458305
71642;BME280;60657;50.122;14.468;2023-04-29T17:24:51;98247.76046403243;;;13.781948577096209;68.1302357518883
71642;BME280;60657;50.122;14.468;2023-04-29T17:27:52;98261.19007601164;;;13.635080491340503;68.83024338139926
71642;BME280;60657;50.122;14.468;2023-04-29T17:30:59;98272.11350992318;;;13.62706950484474;69.34142061493858
71642;BME280;60657;50.122;14.468;2023-04-29T17:34:05;98269.63162471582;;;13.576333257038222;69.52262149996186
71642;BME280;60657;50.122;14.468;2023-04-29T17:37:06;98283.23270775564;;;13.432135500114441;69.74387731746396
71642;BME280;60657;50.122;14.468;2023-04-29T17:40:07;98283.3288394257;;;13.319981689173723;70.10055695429924
71642;BME280;60657;50.122;14.468;2023-04-29T17:43:09;98289.25326959649;;;13.261234454871442;70.21309224078736
71642;BME280;60657;50.122;14.468;2023-04-29T17:46:10;98300.82211903189;;;13.349355306324867;70.06431677729458
71642;BME280;60657;50.122;14.468;2023-04-29T17:49:11;98295.08382285417;;;13.298619058518348;70.16922255283437
71642;BME280;60657;50.122;14.468;2023-04-29T17:52:13;98295.2279534736;;;13.181124589913786;70.14442664225223
71642;BME280;60657;50.122;14.468;2023-04-29T17:55:14;98306.12884584752;;;13.127718013275349;70.33897917143511
71642;BME280;60657;50.122;14.468;2023-04-29T17:58:15;98295.49963286043;;;12.940794995040818;70.71091783016709
71642;BME280;60657;50.122;14.468;2023-04-29T18:01:16;98301.40751598674;;;12.882047760738537;70.89402609292745
71642;BME280;60657;50.122;14.468;2023-04-29T18:04:17;98304.79743670613;;;12.8046082246128;70.98939497978179
71642;BME280;60657;50.122;14.468;2023-04-29T18:07:18;98303.21691387279;;;12.735179674982831;71.3289082169833
71642;BME280;60657;50.122;14.468;2023-04-29T18:10:21;98317.42735601458;;;12.631036850537882;71.65888456549935
71642;BME280;60657;50.122;14.468;2023-04-29T18:13:22;98326.59522980833;;;12.655069810025175;71.55207141222247
71642;BME280;60657;50.122;14.468;2023-04-29T18:16:23;98328.25189887159;;;12.697795071335925;71.57495994506752
71642;BME280;60657;50.122;14.468;2023-04-29T18:19:24;98329.1082080009;;;12.655069810025175;71.62264438849469
71642;BME280;60657;50.122;14.468;2023-04-29T18:22:26;98338.20635185135;;;12.753871976806288;71.40711070420386
71642;BME280;60657;50.122;14.468;2023-04-29T18:25:27;98333.22199461272;;;12.745860990310518;71.28885328450447
71642;BME280;60657;50.122;14.468;2023-04-29T18:28:28;98342.41793680449;;;12.668421454184788;71.32509346150911
71642;BME280;60657;50.122;14.468;2023-04-29T18:31:29;98344.03331148192;;;12.687113756008237;71.19157701991303
71642;BME280;60657;50.122;14.468;2023-04-29T18:34:30;98335.76297969137;;;12.663080796520944;71.11528191042954
71642;BME280;60657;50.122;14.468;2023-04-29T18:37:31;98343.35331630115;;;12.518883039597164;71.60547798886091
71642;BME280;60657;50.122;14.468;2023-04-29T18:40:32;98353.34781425667;;;12.518883039597164;71.57114518959335
71642;BME280;60657;50.122;14.468;2023-04-29T18:43:33;98351.63883284222;;;12.59899290455482;71.42618448157474
71642;BME280;60657;50.122;14.468;2023-04-29T18:46:34;98354.89985729233;;;12.67643244068055;71.25070572976273
71642;BME280;60657;50.122;14.468;2023-04-29T18:49:35;98363.2654858693;;;12.625696192874038;71.23353933012893
71642;BME280;60657;50.122;14.468;2023-04-29T18:52:36;98357.41238862085;;;12.721828030823225;71.19157701991303
71642;BME280;60657;50.122;14.468;2023-04-29T18:55:37;98378.12798171809;;;12.78591592278935;71.1801327534905
71642;BME280;60657;50.122;14.468;2023-04-29T18:58:39;98372.2864523021;;;12.839322499427787;70.8997482261387
71642;BME280;60657;50.122;14.468;2023-04-29T19:01:40;98375.57315543167;;;12.8286411841001;70.87495231555657
71642;BME280;60657;50.122;14.468;2023-04-29T19:04:41;98382.21618814969;;;12.90608072022583;70.93789578088044
71642;BME280;60657;50.122;14.468;2023-04-29T19:07:42;98374.73052834661;;;12.841992828259706;71.1515220874342
71642;BME280;60657;50.122;14.468;2023-04-29T19:10:43;98385.48841561541;;;12.924773022049287;70.87304493781949
71642;BME280;60657;50.122;14.468;2023-04-29T19:13:44;98385.47410716259;;;12.975509269855799;70.81963836118105
71642;BME280;60657;50.122;14.468;2023-04-29T19:16:45;98383.84534967996;;;12.975509269855799;70.94934004730297
71642;BME280;60657;50.122;14.468;2023-04-29T19:19:46;98392.1032593479;;;13.034256504158087;70.63653009842069
71642;BME280;60657;50.122;14.468;2023-04-29T19:22:49;98397.94704211607;;;12.95681696803235;70.91882200350958
71642;BME280;60657;50.122;14.468;2023-04-29T19:25:50;98399.67464265421;;;12.922102693217361;71.02372777904937
71642;BME280;60657;50.122;14.468;2023-04-29T19:28:52;98402.96185212865;;;13.010223544670787;70.91882200350958
71642;BME280;60657;50.122;14.468;2023-04-29T19:31:53;98410.44890670425;;;12.986190585183486;71.08094911116197
71642;BME280;60657;50.122;14.468;2023-04-29T19:34:54;98416.35994968585;;;12.866025787747006;71.56733043411917
71642;BME280;60657;50.122;14.468;2023-04-29T19:37:55;98412.22865399678;;;12.882047760738537;71.70847638666362
71642;BME280;60657;50.122;14.468;2023-04-29T19:40:56;98411.41287972011;;;12.892729076066225;71.55779354543374
71642;BME280;60657;50.122;14.468;2023-04-29T19:43:57;98416.35994968585;;;12.919432364385443;71.5349050125887
71642;BME280;60657;50.122;14.468;2023-04-29T19:46:58;98421.41214622575;;;12.825970855268174;72.06134126802472
71642;BME280;60657;50.122;14.468;2023-04-29T19:49:59;98428.91161872349;;;12.866025787747006;71.73708705271991
71642;BME280;60657;50.122;14.468;2023-04-29T19:53:00;98422.24113837311;;;12.850003814755475;71.90112153810941
71642;BME280;60657;50.122;14.468;2023-04-29T19:56:01;98413.12242749271;;;12.812619211108569;72.11856260013734
71642;BME280;60657;50.122;14.468;2023-04-29T19:59:02;98413.12242749271;;;12.839322499427787;72.03654535744259
71642;BME280;60657;50.122;14.468;2023-04-29T20:02:03;98407.29428402921;;;12.8286411841001;72.13572899977112
71642;BME280;60657;50.122;14.468;2023-04-29T20:05:04;98401.46623390187;;;12.852674143587393;72.03845273517967
71642;BME280;60657;50.122;14.468;2023-04-29T20:08:06;98409.80664323703;;;12.751201647974362;72.39131761654077
71642;BME280;60657;50.122;14.468;2023-04-29T20:11:09;98407.26837945057;;;12.860685130083162;71.92210269321737
71642;BME280;60657;50.122;14.468;2023-04-29T20:14:10;98409.75506855485;;;12.868696116578924;71.83436331731136
71642;BME280;60657;50.122;14.468;2023-04-29T20:17:11;98423.1209181083;;;12.724498359655144;72.25398641947051
71642;BME280;60657;50.122;14.468;2023-04-29T20:20:12;98422.35337974086;;;12.735179674982831;72.33791103990234
71642;BME280;60657;50.122;14.468;2023-04-29T20:23:18;98418.18379491968;;;12.695124742504007;72.5076676585031
71642;BME280;60657;50.122;14.468;2023-04-29T20:26:23;98422.37737416451;;;12.681773098344394;72.52864881361104
71642;BME280;60657;50.122;14.468;2023-04-29T20:29:24;98430.75041885488;;;12.663080796520944;72.73083085374228
71642;BME280;60657;50.122;14.468;2023-04-29T20:32:25;98434.87338286778;;;12.671091783016706;72.50385290302891
71642;BME280;60657;50.122;14.468;2023-04-29T20:35:26;98433.23802432432;;;12.609674219882507;72.65835049973296
71642;BME280;60657;50.122;14.468;2023-04-29T20:38:27;98429.0920336795;;;12.609674219882507;72.66216525520714
71642;BME280;60657;50.122;14.468;2023-04-29T20:41:28;98430.7953287984;;;12.604333562218663;72.82047760738537
71642;BME280;60657;50.122;14.468;2023-04-29T20:44:29;98433.30503756399;;;12.540245670252538;73.11230640115969
71642;BME280;60657;50.122;14.468;2023-04-29T20:47:31;98429.13687026361;;;12.57495994506752;73.11612115663387
71642;BME280;60657;50.122;14.468;2023-04-29T20:50:32;98432.45380211943;;;12.588311589227132;72.91393911650263
71642;BME280;60657;50.122;14.468;2023-04-29T20:53:35;98434.94153982213;;;12.593652246890976;72.82429236285954
71642;BME280;60657;50.122;14.468;2023-04-29T20:56:36;98434.1122902253;;;12.625696192874038;72.78233005264363
71642;BME280;60657;50.122;14.468;2023-04-29T20:59:37;98436.62211668406;;;12.61501487754635;72.95017929350729
71642;BME280;60657;50.122;14.468;2023-04-29T21:02:38;98434.1122902253;;;12.636377508201726;72.81284809643702
71642;BME280;60657;50.122;14.468;2023-04-29T21:05:39;98440.75751267906;;;12.612344548714425;73.03219653620204
71642;BME280;60657;50.122;14.468;2023-04-29T21:08:40;98444.06352926564;;;12.665751125352863;72.74799725337606
71642;BME280;60657;50.122;14.468;2023-04-29T21:11:43;98444.07468817028;;;12.663080796520944;72.72892347600519
71642;BME280;60657;50.122;14.468;2023-04-29T21:14:44;98451.57175671482;;;12.649729152361331;72.62592507820248
71642;BME280;60657;50.122;14.468;2023-04-29T21:17:46;98454.07078386848;;;12.628366521705956;72.68505378805219
71642;BME280;60657;50.122;14.468;2023-04-29T21:20:47;98460.74909028686;;;12.601663233386738;72.66407263294423
71642;BME280;60657;50.122;14.468;2023-04-29T21:23:50;98464.09846704788;;;12.59899290455482;72.77470054169528
71642;BME280;60657;50.122;14.468;2023-04-29T21:26:51;98459.98169961869;;;12.48950942244602;72.96543831540399
71642;BME280;60657;50.122;14.468;2023-04-29T21:29:52;98458.30240308994;;;12.534905012588695;72.90058747234302
71642;BME280;60657;50.122;14.468;2023-04-29T21:32:53;98460.89855686366;;;12.377355611505301;73.42702372777904
71642;BME280;60657;50.122;14.468;2023-04-29T21:35:54;98466.70574879617;;;12.433432516975664;73.15999084458686
71642;BME280;60657;50.122;14.468;2023-04-29T21:38:55;98470.89088033451;;;12.401388570992602;73.21911955443656
71642;BME280;60657;50.122;14.468;2023-04-29T21:41:56;98475.02082870725;;;12.481498435950257;73.02265964751659
71642;BME280;60657;50.122;14.468;2023-04-29T21:44:58;98475.03926115621;;;12.422751201647976;73.32974746318762
71642;BME280;60657;50.122;14.468;2023-04-29T21:48:03;98473.35217483445;;;12.425421530479895;73.24391546501869
71642;BME280;60657;50.122;14.468;2023-04-29T21:51:13;98484.17521262041;;;12.444113832303351;73.19623102159152
71642;BME280;60657;50.122;14.468;2023-04-29T21:54:14;98482.5248328218;;;12.396047913328758;73.26108186465248
71642;BME280;60657;50.122;14.468;2023-04-29T21:57:15;98479.24124117084;;;12.321278706034946;73.56816968032349
71642;BME280;60657;50.122;14.468;2023-04-29T22:00:16;98476.7858224832;;;12.273212787060352;73.53002212558175
71642;BME280;60657;50.122;14.468;2023-04-29T22:03:17;98475.12626152071;;;12.278553444724196;73.8027771419852
71642;BME280;60657;50.122;14.468;2023-04-29T22:06:19;98476.7858224832;;;12.21713588158999;73.96681162737468
71642;BME280;60657;50.122;14.468;2023-04-29T22:09:20;98475.14262955786;;;12.25986114290074;73.8332951857786
71642;BME280;60657;50.122;14.468;2023-04-29T22:12:21;98477.64011372853;;;12.203784237430384;73.88288700694285
71642;BME280;60657;50.122;14.468;2023-04-29T22:15:23;98477.64811017204;;;12.185091935606927;74.01258869306477
71642;BME280;60657;50.122;14.468;2023-04-29T22:18:24;98485.16334581321;;;12.126344701304646;74.35019455252919
71642;BME280;60657;50.122;14.468;2023-04-29T22:21:25;98486.82317824072;;;12.142366674296177;74.29106584267949
71642;BME280;60657;50.122;14.468;2023-04-29T22:24:29;98483.47283449772;;;12.19844357976654;74.08506904707409
71642;BME280;60657;50.122;14.468;2023-04-29T22:27:30;98480.98324536797;;;12.169069962615396;74.28343633173114
71642;BME280;60657;50.122;14.468;2023-04-29T22:30:33;98484.27875463318;;;12.246509498741133;74.00686655985352
71642;BME280;60657;50.122;14.468;2023-04-29T22:33:34;98489.29765214828;;;12.222476539253833;74.15754940108339
71642;BME280;60657;50.122;14.468;2023-04-29T22:36:36;98476.7940677419;;;12.246509498741133;73.90386816205081
71642;BME280;60657;50.122;14.468;2023-04-29T22:39:37;98490.11190212646;;;12.235828183413446;74.07171740291447
71642;BME280;60657;50.122;14.468;2023-04-29T22:42:38;98480.99870945139;;;12.177080949111165;74.20714122224766
71642;BME280;60657;50.122;14.468;2023-04-29T22:45:39;98486.800177481;;;12.246509498741133;74.07171740291447
71642;BME280;60657;50.122;14.468;2023-04-29T22:48:40;98495.05877827694;;;12.372014953841457;73.67879758907453
71642;BME280;60657;50.122;14.468;2023-04-29T22:51:42;98495.91325585579;;;12.310597390707258;73.8027771419852
71642;BME280;60657;50.122;14.468;2023-04-29T22:54:43;98499.26467699146;;;12.251850156404977;74.10795757991913
71642;BME280;60657;50.122;14.468;2023-04-29T22:57:44;98485.08384981737;;;12.331960021362633;73.80659189745937
71642;BME280;60657;50.122;14.468;2023-04-29T23:00:50;98490.93383182408;;;12.29991607537957;73.76844434271763
71642;BME280;60657;50.122;14.468;2023-04-29T23:03:53;98499.2875723175;;;12.214465552758071;73.96681162737468
71642;BME280;60657;50.122;14.468;2023-04-29T23:06:54;98500.14692804408;;;12.13168535896849;74.28534370946822
71642;BME280;60657;50.122;14.468;2023-04-29T23:09:56;98490.1867872487;;;12.072938124666209;74.48943312733654
71642;BME280;60657;50.122;14.468;2023-04-29T23:12:57;98494.33678090601;;;12.145037003128103;74.34828717479209
71642;BME280;60657;50.122;14.468;2023-04-29T23:15:58;98493.52079332591;;;12.094300755321584;74.50278477149615
71642;BME280;60657;50.122;14.468;2023-04-29T23:18:59;98495.18774440548;;;12.072938124666209;74.58861676966507
71642;BME280;60657;50.122;14.468;2023-04-29T23:22:01;98498.52821992934;;;12.094300755321584;74.61722743572138
71642;BME280;60657;50.122;14.468;2023-04-29T23:25:06;98489.39755141287;;;11.93675135423819;75.0997940032044
71642;BME280;60657;50.122;14.468;2023-04-29T23:28:08;98493.5607872051;;;12.00350957503624;75.12458991378652
71642;BME280;60657;50.122;14.468;2023-04-29T23:31:09;98494.39086616946;;;11.93675135423819;75.32486457618067
71642;BME280;60657;50.122;14.468;2023-04-29T23:34:10;98496.88112537848;;;12.008850232700084;75.17990386816206
71642;BME280;60657;50.122;14.468;2023-04-29T23:37:11;98496.90007190824;;;11.968795300221252;75.28862439917602
71642;BME280;60657;50.122;14.468;2023-04-29T23:40:13;98496.90621566589;;;12.006179903868166;75.41069657434959
71642;BME280;60657;50.122;14.468;2023-04-29T23:43:14;98498.5785460659;;;11.958113984893565;75.5117875944152
71642;BME280;60657;50.122;14.468;2023-04-29T23:46:15;98506.05606855318;;;11.952773327229721;75.44121461814298
71642;BME280;60657;50.122;14.468;2023-04-29T23:49:16;98503.54114501466;;;12.056916151674677;75.30769817654688
71642;BME280;60657;50.122;14.468;2023-04-29T23:52:17;98498.55407005327;;;12.006179903868166;75.4965285725185
71642;BME280;60657;50.122;14.468;2023-04-29T23:55:19;98509.3768844845;;;11.984817273212784;75.47173266193637
71642;BME280;60657;50.122;14.468;2023-04-29T23:58:20;98506.02527914813;;;12.02754253452354;75.43549248493171
